Time;durP1;ratioP1;P1;durP2;ratioP2;P2;SDS_P1;SDS_P2;PMS_P1;PMS_P2;Temp;Humidity;BMP_temperature;BMP_pressure;BME280_temperature;BME280_humidity;BME280_pressure;Samples;Min_cycle;Max_cycle;Signal;HPM_P1;HPM_P2
2022/02/26 00:01:48;;;;;;;37.28;4.60;;;4.00;99.90;;;;;;5048055;28;20095;-70
2022/02/26 00:04:14;;;;;;;29.80;4.53;;;4.00;99.90;;;;;;5031437;28;20041;-70
2022/02/26 00:06:40;;;;;;;37.75;5.30;;;3.90;99.90;;;;;;5046828;28;20041;-72
2022/02/26 00:09:06;;;;;;;37.80;4.90;;;3.90;99.90;;;;;;5052366;28;20041;-73
2022/02/26 00:11:35;;;;;;;31.00;4.82;;;3.80;99.90;;;;;;5040353;28;20037;-70
2022/02/26 00:14:01;;;;;;;25.65;4.93;;;4.60;99.90;;;;;;5052036;28;20124;-70
2022/02/26 00:16:27;;;;;;;32.92;4.50;;;3.80;99.90;;;;;;5052150;28;20033;-70
2022/02/26 00:18:53;;;;;;;36.58;5.50;;;3.80;99.90;;;;;;5051025;28;20068;-70
2022/02/26 00:21:19;;;;;;;29.67;4.90;;;3.80;99.90;;;;;;5051865;28;20065;-70
2022/02/26 00:23:45;;;;;;;35.17;4.63;;;3.80;99.90;;;;;;5050729;28;20049;-70
2022/02/26 00:26:12;;;;;;;31.95;4.47;;;3.80;99.90;;;;;;5050687;28;20076;-70
2022/02/26 00:28:37;;;;;;;27.40;5.00;;;3.80;99.90;;;;;;5036210;28;20385;-70
2022/02/26 00:31:03;;;;;;;27.95;4.65;;;3.80;99.90;;;;;;5032850;28;20033;-69
2022/02/26 00:33:29;;;;;;;28.90;4.38;;;3.70;99.90;;;;;;5017898;28;20048;-73
2022/02/26 00:35:59;;;;;;;31.73;4.93;;;3.70;99.90;;;;;;5035152;28;20033;-70
2022/02/26 00:38:26;;;;;;;29.67;4.53;;;3.60;99.90;;;;;;5034907;28;20052;-69
2022/02/26 00:40:52;;;;;;;43.97;6.18;;;3.50;99.90;;;;;;5050059;28;20116;-70
2022/02/26 00:43:18;;;;;;;33.55;5.38;;;3.50;99.90;;;;;;5055824;28;20124;-71
2022/02/26 00:45:44;;;;;;;37.65;5.55;;;3.40;99.90;;;;;;5046687;28;20065;-70
2022/02/26 00:48:10;;;;;;;34.22;5.82;;;3.50;99.90;;;;;;5036488;28;20041;-70
2022/02/26 00:50:36;;;;;;;37.17;5.88;;;3.30;99.90;;;;;;5045106;28;20056;-70
2022/02/26 00:53:01;;;;;;;39.42;6.53;;;3.30;99.90;;;;;;5055317;28;20096;-70
2022/02/26 00:55:27;;;;;;;40.03;6.25;;;3.30;99.90;;;;;;5055019;28;20040;-70
2022/02/26 00:57:53;;;;;;;33.83;5.93;;;3.30;99.90;;;;;;5054357;28;20090;-72
2022/02/26 01:00:19;;;;;;;30.45;5.00;;;3.30;99.90;;;;;;5054223;28;20158;-72
2022/02/26 01:02:46;;;;;;;32.72;5.22;;;3.20;99.90;;;;;;5043510;28;20048;-70
2022/02/26 01:05:12;;;;;;;35.80;5.88;;;3.20;99.90;;;;;;5019881;28;20398;-69
2022/02/26 01:07:38;;;;;;;29.23;5.32;;;3.20;99.90;;;;;;5055061;28;20044;-70
2022/02/26 01:10:05;;;;;;;28.80;5.55;;;3.20;99.90;;;;;;5037145;28;20045;-70
2022/02/26 01:12:31;;;;;;;35.85;5.53;;;3.10;99.90;;;;;;5055082;28;20095;-70
2022/02/26 01:14:57;;;;;;;30.52;5.15;;;3.10;99.90;;;;;;5051509;28;20029;-70
2022/02/26 01:17:23;;;;;;;34.22;4.50;;;3.00;99.90;;;;;;5053918;28;20039;-70
2022/02/26 01:19:49;;;;;;;29.48;4.53;;;3.10;99.90;;;;;;5052404;28;20112;-73
2022/02/26 01:22:15;;;;;;;25.77;3.83;;;4.00;99.90;;;;;;5037097;28;20478;-72
2022/02/26 01:24:41;;;;;;;37.28;5.20;;;3.10;99.90;;;;;;5054680;28;20049;-73
2022/02/26 01:27:07;;;;;;;26.60;4.80;;;3.10;99.90;;;;;;5054862;28;20044;-73
2022/02/26 01:29:33;;;;;;;33.53;5.53;;;3.10;99.90;;;;;;5053042;28;20045;-73
2022/02/26 01:31:59;;;;;;;35.83;5.15;;;3.00;99.90;;;;;;5053488;28;20072;-73
2022/02/26 01:34:25;;;;;;;27.40;4.82;;;3.00;99.90;;;;;;5054345;28;20094;-72
2022/02/26 01:36:50;;;;;;;32.35;4.47;;;3.00;99.90;;;;;;5049338;28;20481;-73
2022/02/26 01:39:23;;;;;;;37.15;5.40;;;3.00;99.90;;;;;;5054513;28;20035;-71
2022/02/26 01:41:49;;;;;;;32.45;4.65;;;3.00;99.90;;;;;;5052515;28;20043;-70
2022/02/26 01:44:14;;;;;;;35.90;5.00;;;3.10;99.90;;;;;;5052918;28;20040;-70
2022/02/26 01:46:40;;;;;;;30.90;4.47;;;3.80;99.90;;;;;;5037695;28;20076;-70
2022/02/26 01:49:06;;;;;;;30.52;4.55;;;2.90;99.90;;;;;;5033304;28;20037;-70
2022/02/26 01:51:32;;;;;;;27.83;4.35;;;2.90;99.90;;;;;;5038394;28;20041;-71
2022/02/26 01:53:58;;;;;;;29.50;4.70;;;3.10;99.90;;;;;;5049690;28;20059;-71
2022/02/26 01:56:24;;;;;;;25.50;4.28;;;2.90;99.90;;;;;;5039503;28;20084;-72
2022/02/26 01:58:50;;;;;;;32.72;4.72;;;2.90;99.90;;;;;;5054356;28;20037;-72
2022/02/26 02:01:16;;;;;;;28.20;4.63;;;3.00;99.90;;;;;;5054156;28;20124;-72
2022/02/26 02:03:41;;;;;;;26.17;3.90;;;2.90;99.90;;;;;;5054338;28;20603;-72
2022/02/26 02:06:10;;;;;;;28.27;4.43;;;2.90;99.90;;;;;;5037415;28;20108;-72
2022/02/26 02:08:37;;;;;;;33.05;4.80;;;2.90;99.90;;;;;;5037318;28;20481;-73
2022/02/26 02:11:05;;;;;;;23.70;3.97;;;3.00;99.90;;;;;;5039903;28;20041;-72
2022/02/26 02:13:30;;;;;;;25.00;4.40;;;2.80;99.90;;;;;;5034196;28;20045;-70
2022/02/26 02:15:56;;;;;;;24.08;4.00;;;2.80;99.90;;;;;;5045755;28;20465;-70
2022/02/26 02:18:24;;;;;;;27.95;4.15;;;2.80;99.90;;;;;;5052545;28;20123;-70
2022/02/26 02:20:50;;;;;;;29.25;3.92;;;2.80;99.90;;;;;;5053414;28;20109;-70
2022/02/26 02:23:16;;;;;;;28.30;4.15;;;3.30;99.90;;;;;;5051314;28;20139;-70
2022/02/26 02:25:42;;;;;;;28.52;4.03;;;2.90;99.90;;;;;;5034807;28;20048;-70
2022/02/26 02:28:09;;;;;;;28.88;4.57;;;2.80;99.90;;;;;;5053015;28;20052;-72
2022/02/26 02:30:35;;;;;;;30.15;4.15;;;2.80;99.90;;;;;;5051816;28;20117;-72
2022/02/26 02:33:01;;;;;;;28.33;5.38;;;2.80;99.90;;;;;;5053571;28;20473;-72
2022/02/26 02:35:38;;;;;;;37.80;5.32;;;2.80;99.90;;;;;;5052329;28;20504;-73
2022/02/26 02:38:08;;;;;;;22.48;4.65;;;2.70;99.90;;;;;;5051455;28;20037;-72
2022/02/26 02:40:35;;;;;;;36.20;4.95;;;2.70;99.90;;;;;;5051917;28;20111;-72
2022/02/26 02:43:01;;;;;;;32.22;5.07;;;2.70;99.90;;;;;;5039358;28;20037;-73
2022/02/26 02:45:27;;;;;;;29.83;4.88;;;2.70;99.90;;;;;;5033515;28;20037;-73
2022/02/26 02:47:53;;;;;;;31.40;4.78;;;2.70;99.90;;;;;;5039328;28;20132;-73
2022/02/26 02:50:19;;;;;;;34.58;5.63;;;2.70;99.90;;;;;;5053592;28;20044;-70
2022/02/26 02:52:46;;;;;;;28.67;5.10;;;3.10;99.90;;;;;;5052844;28;20094;-69
2022/02/26 02:55:14;;;;;;;29.45;4.82;;;2.60;99.90;;;;;;5031076;28;20095;-70
2022/02/26 02:57:43;;;;;;;43.35;7.13;;;3.20;99.90;;;;;;5034403;28;20099;-72
2022/02/26 03:00:11;;;;;;;44.60;8.38;;;2.60;99.90;;;;;;5052109;28;20116;-72
2022/02/26 03:02:37;;;;;;;33.53;7.47;;;2.60;99.90;;;;;;5051941;28;20052;-73
2022/02/26 03:05:03;;;;;;;45.08;7.40;;;2.50;99.90;;;;;;5053294;28;20037;-69
2022/02/26 03:07:29;;;;;;;41.97;6.45;;;2.50;99.90;;;;;;5052985;28;20041;-70
2022/02/26 03:09:54;;;;;;;24.13;5.35;;;2.50;99.90;;;;;;5034536;28;20049;-70
2022/02/26 03:12:22;;;;;;;26.85;5.15;;;2.50;99.90;;;;;;5052559;28;20045;-70
2022/02/26 03:14:48;;;;;;;31.15;5.55;;;2.50;99.90;;;;;;5032144;28;20112;-72
2022/02/26 03:17:14;;;;;;;33.33;5.32;;;2.40;99.90;;;;;;5034923;28;20044;-73
2022/02/26 03:19:40;;;;;;;29.80;5.00;;;2.40;99.90;;;;;;5052626;28;20101;-73
2022/02/26 03:22:06;;;;;;;27.90;4.85;;;2.40;99.90;;;;;;5035281;28;20064;-73
2022/02/26 03:24:32;;;;;;;36.53;5.20;;;2.40;99.90;;;;;;5051519;28;20397;-70
2022/02/26 03:26:58;;;;;;;27.20;4.50;;;2.30;99.90;;;;;;5051654;28;20052;-69
2022/02/26 03:29:26;;;;;;;31.75;4.47;;;2.30;99.90;;;;;;5024353;28;20049;-70
2022/02/26 03:31:51;;;;;;;33.35;6.15;;;2.30;99.90;;;;;;5032943;28;20131;-70
2022/02/26 03:34:20;;;;;;;39.70;7.35;;;2.30;99.90;;;;;;5032587;28;20516;-70
2022/02/26 03:36:48;;;;;;;29.52;5.50;;;2.30;99.90;;;;;;5047226;28;20045;-70
2022/02/26 03:39:14;;;;;;;37.55;6.60;;;2.30;99.90;;;;;;5032226;28;20119;-69
2022/02/26 03:41:40;;;;;;;36.90;6.70;;;2.50;99.90;;;;;;5051006;28;20051;-69
2022/02/26 03:44:09;;;;;;;35.67;6.05;;;2.20;99.90;;;;;;5050377;28;20048;-70
2022/02/26 03:46:36;;;;;;;32.90;6.60;;;2.20;99.90;;;;;;5051932;28;20041;-69
2022/02/26 03:49:03;;;;;;;33.58;5.72;;;2.20;99.90;;;;;;5050839;28;20079;-69
2022/02/26 03:51:29;;;;;;;26.88;5.20;;;2.20;99.90;;;;;;5051433;28;20443;-70
2022/02/26 03:53:55;;;;;;;38.47;6.20;;;2.20;99.90;;;;;;5051053;28;20072;-70
2022/02/26 03:56:21;;;;;;;32.50;5.18;;;2.20;99.90;;;;;;5052175;28;20421;-70
2022/02/26 03:58:49;;;;;;;30.38;5.22;;;2.20;99.90;;;;;;5034295;28;20122;-71
2022/02/26 04:01:15;;;;;;;22.92;4.90;;;2.20;99.90;;;;;;5051782;28;20047;-71
2022/02/26 04:03:44;;;;;;;25.73;5.07;;;2.10;99.90;;;;;;5038827;28;20037;-71
2022/02/26 04:06:10;;;;;;;28.23;5.38;;;2.60;99.90;;;;;;5033370;28;20620;-71
2022/02/26 04:08:36;;;;;;;27.40;5.82;;;1.60;99.90;;;;;;5051198;28;20052;-69
2022/02/26 04:11:02;;;;;;;27.92;5.43;;;2.20;99.90;;;;;;5036495;28;20037;-69
2022/02/26 04:13:28;;;;;;;25.85;4.10;;;2.20;99.90;;;;;;5030550;28;20045;-70
2022/02/26 04:15:53;;;;;;;23.35;4.47;;;2.20;99.90;;;;;;5056272;28;20097;-69
2022/02/26 04:18:19;;;;;;;33.85;5.68;;;2.20;99.90;;;;;;5053853;28;20045;-69
2022/02/26 04:20:45;;;;;;;24.92;4.78;;;2.20;99.90;;;;;;5053042;28;20037;-73
2022/02/26 04:23:11;;;;;;;24.15;3.80;;;2.30;99.90;;;;;;5054601;28;20072;-72
2022/02/26 04:25:37;;;;;;;19.15;4.07;;;2.20;99.90;;;;;;5054910;28;20044;-72
2022/02/26 04:28:03;;;;;;;24.67;4.30;;;2.30;99.90;;;;;;5054772;28;20037;-72
2022/02/26 04:30:29;;;;;;;27.13;4.13;;;2.20;99.90;;;;;;5054639;28;20084;-72
2022/02/26 04:32:55;;;;;;;33.80;4.78;;;2.20;99.90;;;;;;5055807;28;20084;-72
2022/02/26 04:35:22;;;;;;;29.42;4.22;;;2.20;99.90;;;;;;5051377;28;20033;-72
2022/02/26 04:37:48;;;;;;;27.67;4.32;;;2.20;99.90;;;;;;5045536;28;20033;-72
2022/02/26 04:40:15;;;;;;;36.83;4.55;;;2.20;99.90;;;;;;5054543;28;20366;-70
2022/02/26 04:42:41;;;;;;;30.33;5.03;;;2.20;99.90;;;;;;5055630;28;20154;-70
2022/02/26 04:45:08;;;;;;;30.10;4.47;;;2.20;99.90;;;;;;5054412;28;20033;-70
2022/02/26 04:47:34;;;;;;;29.20;4.47;;;2.20;99.90;;;;;;5055631;28;20567;-70
2022/02/26 04:50:00;;;;;;;26.83;4.18;;;2.30;99.90;;;;;;5037195;28;20064;-70
2022/02/26 04:52:26;;;;;;;34.20;4.82;;;2.30;99.90;;;;;;5052972;28;20048;-72
2022/02/26 04:54:51;;;;;;;32.33;4.35;;;2.30;99.90;;;;;;5041389;28;20501;-72
2022/02/26 04:57:20;;;;;;;20.15;3.80;;;2.30;99.90;;;;;;5054371;28;20063;-72
2022/02/26 04:59:45;;;;;;;28.17;3.90;;;2.30;99.90;;;;;;5037593;28;20167;-72
2022/02/26 05:02:11;;;;;;;29.50;3.78;;;2.30;99.90;;;;;;5054086;28;20073;-72
2022/02/26 05:04:37;;;;;;;29.42;3.97;;;2.30;99.90;;;;;;5053870;28;20080;-72
2022/02/26 05:07:03;;;;;;;33.60;4.50;;;2.30;99.90;;;;;;5037450;28;20079;-72
2022/02/26 05:09:29;;;;;;;25.77;3.67;;;2.30;99.90;;;;;;5052244;28;20163;-73
2022/02/26 05:11:54;;;;;;;29.75;4.25;;;2.30;99.90;;;;;;5036191;28;20045;-72
2022/02/26 05:14:20;;;;;;;19.13;3.65;;;2.30;99.90;;;;;;5033769;28;20041;-72
2022/02/26 05:16:46;;;;;;;23.05;3.65;;;2.20;99.90;;;;;;5032979;28;20041;-72
2022/02/26 05:19:11;;;;;;;29.70;4.10;;;2.20;99.90;;;;;;5017313;28;20094;-73
2022/02/26 05:21:38;;;;;;;24.13;4.05;;;2.20;99.90;;;;;;5034742;28;20073;-70
2022/02/26 05:24:04;;;;;;;24.85;3.90;;;2.20;99.90;;;;;;5053608;28;20126;-72
2022/02/26 05:26:29;;;;;;;31.40;3.83;;;2.10;99.90;;;;;;5022638;28;20076;-70
2022/02/26 05:28:55;;;;;;;30.45;3.92;;;2.10;99.90;;;;;;5035164;28;20045;-70
2022/02/26 05:31:21;;;;;;;26.98;3.53;;;2.10;99.90;;;;;;5081379;28;20508;-70
2022/02/26 05:33:46;;;;;;;27.80;4.20;;;2.00;99.90;;;;;;5036830;28;20124;-70
2022/02/26 05:36:12;;;;;;;25.10;3.85;;;1.90;99.90;;;;;;5053425;28;20044;-70
2022/02/26 05:38:38;;;;;;;23.08;3.58;;;1.90;99.90;;;;;;5045194;28;20061;-70
2022/02/26 05:41:07;;;;;;;26.00;3.83;;;1.80;99.90;;;;;;5034502;28;20042;-69
2022/02/26 05:43:34;;;;;;;32.95;4.80;;;1.80;99.90;;;;;;5018780;28;20048;-70
2022/02/26 05:45:59;;;;;;;24.25;4.18;;;1.80;99.90;;;;;;5050373;28;20053;-69
2022/02/26 05:48:25;;;;;;;30.90;4.35;;;1.70;99.90;;;;;;5033278;28;20063;-70
2022/02/26 05:50:51;;;;;;;21.50;4.25;;;1.70;99.90;;;;;;5044870;28;20043;-69
2022/02/26 05:53:17;;;;;;;21.90;3.72;;;2.10;99.90;;;;;;5053974;28;20094;-69
2022/02/26 05:55:42;;;;;;;23.40;5.32;;;1.70;99.90;;;;;;5054184;28;20037;-70
2022/02/26 05:58:08;;;;;;;30.17;4.30;;;1.60;99.90;;;;;;5052130;28;20112;-70
2022/02/26 06:00:34;;;;;;;23.80;4.03;;;1.60;99.90;;;;;;5033044;28;20478;-70
2022/02/26 06:03:00;;;;;;;25.98;4.55;;;1.60;99.90;;;;;;5034402;28;20041;-70
2022/02/26 06:05:26;;;;;;;18.42;3.70;;;1.60;99.90;;;;;;5046992;28;20491;-70
2022/02/26 06:07:51;;;;;;;20.48;3.47;;;1.60;99.90;;;;;;5020057;28;20049;-70
2022/02/26 06:10:17;;;;;;;21.67;3.92;;;1.40;99.90;;;;;;5054048;28;20052;-70
2022/02/26 06:12:43;;;;;;;23.52;3.55;;;1.50;99.90;;;;;;5053180;28;20072;-70
2022/02/26 06:15:09;;;;;;;22.55;3.85;;;1.50;99.90;;;;;;5075217;28;20087;-70
2022/02/26 06:17:36;;;;;;;31.35;3.60;;;1.40;99.90;;;;;;5054105;28;20081;-72
2022/02/26 06:20:07;;;;;;;27.05;4.13;;;1.50;99.90;;;;;;5052128;28;20040;-72
2022/02/26 06:22:33;;;;;;;22.02;3.72;;;1.40;99.90;;;;;;5052684;28;20052;-72
2022/02/26 06:24:58;;;;;;;20.48;3.67;;;1.50;99.90;;;;;;5051869;28;20040;-72
2022/02/26 06:27:24;;;;;;;19.95;3.78;;;1.40;99.90;;;;;;5052324;28;20375;-71
2022/02/26 06:29:50;;;;;;;21.20;4.40;;;1.80;99.90;;;;;;5053032;28;20041;-72
2022/02/26 06:32:16;;;;;;;19.70;3.55;;;1.40;99.90;;;;;;5039213;28;20056;-69
2022/02/26 06:34:42;;;;;;;22.98;4.10;;;1.40;99.90;;;;;;5052127;28;20060;-69
2022/02/26 06:37:07;;;;;;;25.13;4.75;;;1.50;99.90;;;;;;5052163;28;20076;-72
2022/02/26 06:39:33;;;;;;;18.60;4.38;;;1.40;99.90;;;;;;5053481;28;20507;-72
2022/02/26 06:41:59;;;;;;;27.95;5.00;;;1.30;99.90;;;;;;5032203;28;20076;-72
2022/02/26 06:44:25;;;;;;;31.90;5.00;;;1.40;99.90;;;;;;5044328;28;20071;-72
2022/02/26 06:46:51;;;;;;;24.67;4.82;;;1.60;99.90;;;;;;5044427;28;20045;-72
2022/02/26 06:49:20;;;;;;;27.15;4.50;;;1.40;99.90;;;;;;5032525;28;20053;-72
2022/02/26 06:51:46;;;;;;;25.75;4.25;;;2.10;99.90;;;;;;5084148;28;20123;-72
2022/02/26 06:54:12;;;;;;;29.27;4.50;;;1.50;99.90;;;;;;5029916;28;20389;-72
2022/02/26 06:56:38;;;;;;;24.25;3.80;;;1.50;99.90;;;;;;5033452;28;20049;-72
2022/02/26 06:59:04;;;;;;;32.53;5.15;;;1.50;99.90;;;;;;5034482;28;20041;-72
2022/02/26 07:01:30;;;;;;;24.13;3.97;;;1.70;99.90;;;;;;5046165;28;20037;-72
2022/02/26 07:03:56;;;;;;;30.15;5.45;;;1.50;99.90;;;;;;5051518;28;20087;-72
2022/02/26 07:06:21;;;;;;;24.65;4.28;;;1.60;99.90;;;;;;5034864;28;20075;-72
2022/02/26 07:08:47;;;;;;;27.92;4.68;;;1.50;99.90;;;;;;5040898;28;20041;-73
2022/02/26 07:11:13;;;;;;;25.73;4.45;;;1.60;99.90;;;;;;5040772;28;20037;-72
2022/02/26 07:13:39;;;;;;;29.85;4.70;;;1.60;99.90;;;;;;5040145;28;20055;-73
2022/02/26 07:16:05;;;;;;;26.02;4.85;;;1.70;99.90;;;;;;5047908;28;20029;-72
2022/02/26 07:18:30;;;;;;;27.35;4.93;;;1.70;99.90;;;;;;5048382;28;20497;-75
2022/02/26 07:20:56;;;;;;;32.65;4.72;;;1.80;99.90;;;;;;5043409;28;20046;-73
2022/02/26 07:23:22;;;;;;;27.20;4.47;;;1.80;99.90;;;;;;5038104;28;20091;-73
2022/02/26 07:25:47;;;;;;;30.63;4.53;;;1.90;99.90;;;;;;5063607;28;20056;-72
2022/02/26 07:28:15;;;;;;;21.05;4.45;;;1.90;99.90;;;;;;5048787;28;20042;-74
2022/02/26 07:30:41;;;;;;;28.77;4.28;;;1.90;99.90;;;;;;5046493;28;20037;-72
2022/02/26 07:33:07;;;;;;;29.05;4.72;;;2.00;99.90;;;;;;5034718;28;20128;-73
2022/02/26 07:35:34;;;;;;;22.27;4.15;;;2.00;99.90;;;;;;5044562;28;20396;-73
2022/02/26 07:38:04;;;;;;;22.33;3.80;;;2.00;99.90;;;;;;5032769;28;20449;-75
2022/02/26 07:40:30;;;;;;;26.90;4.43;;;2.60;99.90;;;;;;5032966;28;20033;-74
2022/02/26 07:42:56;;;;;;;33.58;4.90;;;2.10;99.90;;;;;;5043457;28;20099;-73
2022/02/26 07:45:24;;;;;;;31.67;4.43;;;2.20;99.90;;;;;;5033817;28;20044;-74
2022/02/26 07:47:50;;;;;;;30.70;4.75;;;2.30;99.90;;;;;;5050329;28;20041;-76
2022/02/26 07:50:16;;;;;;;30.27;4.82;;;2.30;99.90;;;;;;5033658;28;20114;-75
2022/02/26 07:52:42;;;;;;;20.02;4.18;;;2.50;99.90;;;;;;5049906;28;20040;-74
2022/02/26 07:55:11;;;;;;;27.00;4.70;;;2.50;99.90;;;;;;5038342;28;20037;-73
2022/02/26 07:57:36;;;;;;;31.77;4.30;;;2.60;99.90;;;;;;5050824;28;20069;-72
2022/02/26 08:00:04;;;;;;;32.40;4.72;;;2.60;99.90;;;;;;5033829;28;21798;-72
2022/02/26 08:02:29;;;;;;;22.60;4.57;;;2.60;99.90;;;;;;5049387;28;20048;-74
2022/02/26 08:04:55;;;;;;;25.83;3.78;;;2.70;99.90;;;;;;5034973;28;20366;-74
2022/02/26 08:07:21;;;;;;;24.20;3.83;;;2.70;99.90;;;;;;5036330;28;20508;-74
2022/02/26 08:09:46;;;;;;;32.72;4.65;;;2.80;99.90;;;;;;5046711;28;20037;-74
2022/02/26 08:12:14;;;;;;;22.50;4.10;;;2.80;99.90;;;;;;5040144;28;20032;-74
2022/02/26 08:14:40;;;;;;;24.35;4.43;;;2.80;99.90;;;;;;5039442;28;20038;-75
2022/02/26 08:17:06;;;;;;;35.08;4.78;;;2.90;99.90;;;;;;5041717;28;20029;-73
2022/02/26 08:19:32;;;;;;;31.10;4.72;;;3.00;99.90;;;;;;5030970;28;20045;-73
2022/02/26 08:21:58;;;;;;;25.52;3.78;;;3.00;99.90;;;;;;5062485;28;20041;-75
2022/02/26 08:24:24;;;;;;;29.60;4.55;;;3.00;99.90;;;;;;5052009;28;20049;-75
2022/02/26 08:26:50;;;;;;;27.10;4.47;;;3.10;99.90;;;;;;5036999;28;20489;-74
2022/02/26 08:29:15;;;;;;;34.22;4.47;;;3.20;99.90;;;;;;5034257;28;20409;-74
2022/02/26 08:31:42;;;;;;;26.15;4.47;;;3.30;99.90;;;;;;5061562;28;20044;-75
2022/02/26 08:34:08;;;;;;;27.77;4.68;;;3.30;99.90;;;;;;5035523;28;20066;-74
2022/02/26 08:36:33;;;;;;;27.63;4.78;;;3.40;99.90;;;;;;5045929;28;20115;-76
2022/02/26 08:38:59;;;;;;;31.80;5.05;;;3.50;99.90;;;;;;5040016;28;20029;-75
2022/02/26 08:41:26;;;;;;;29.02;4.72;;;3.80;99.90;;;;;;5060289;28;20032;-74
2022/02/26 08:43:52;;;;;;;39.10;4.93;;;4.00;99.90;;;;;;5059099;28;20044;-75
2022/02/26 08:46:18;;;;;;;36.05;4.63;;;3.90;99.90;;;;;;5061313;28;20041;-75
2022/02/26 08:48:51;;;;;;;25.35;4.03;;;3.80;99.90;;;;;;5072312;28;20041;-77
2022/02/26 08:51:20;;;;;;;37.50;5.45;;;3.90;99.90;;;;;;5038252;28;20528;-81
2022/02/26 08:53:45;;;;;;;25.38;4.05;;;4.00;99.90;;;;;;5024476;28;20631;-77
2022/02/26 08:56:11;;;;;;;30.35;5.57;;;4.00;99.90;;;;;;5056639;28;20115;-75
2022/02/26 08:58:37;;;;;;;34.88;4.35;;;4.10;99.90;;;;;;5062282;28;20363;-76
2022/02/26 09:01:03;;;;;;;35.22;4.47;;;4.40;99.90;;;;;;5052542;28;20045;-79
2022/02/26 09:03:28;;;;;;;31.63;5.18;;;4.20;99.90;;;;;;5050199;28;20065;-76
2022/02/26 09:05:54;;;;;;;34.30;4.22;;;4.20;99.90;;;;;;5052475;28;20074;-76
2022/02/26 09:08:20;;;;;;;27.63;4.53;;;4.50;99.90;;;;;;5049094;28;20059;-76
2022/02/26 09:10:45;;;;;;;33.15;4.50;;;4.30;99.90;;;;;;5052368;28;20049;-75
2022/02/26 09:13:11;;;;;;;32.20;4.68;;;4.30;99.90;;;;;;5051418;28;20045;-78
2022/02/26 09:15:37;;;;;;;37.47;4.85;;;4.50;99.90;;;;;;5028102;28;20128;-74
2022/02/26 09:18:03;;;;;;;27.08;4.70;;;4.50;99.90;;;;;;5049033;28;20033;-74
2022/02/26 09:20:29;;;;;;;38.50;5.13;;;4.50;99.90;;;;;;5073843;28;20037;-72
2022/02/26 09:22:55;;;;;;;34.70;6.25;;;4.50;99.90;;;;;;5036555;28;20049;-72
2022/02/26 09:25:20;;;;;;;31.95;4.75;;;4.50;99.90;;;;;;5032686;28;20045;-73
2022/02/26 09:27:47;;;;;;;30.42;4.53;;;4.50;99.90;;;;;;5045339;28;20055;-73
2022/02/26 09:30:13;;;;;;;22.30;4.50;;;4.50;99.90;;;;;;5053592;28;20041;-73
2022/02/26 09:32:39;;;;;;;24.92;4.32;;;5.20;99.90;;;;;;5054246;28;20397;-73
2022/02/26 09:35:06;;;;;;;30.40;4.32;;;4.60;99.90;;;;;;5054866;28;20051;-73
2022/02/26 09:37:38;;;;;;;34.03;4.95;;;4.60;99.90;;;;;;5054716;28;20037;-73
2022/02/26 09:40:04;;;;;;;28.40;5.00;;;4.70;99.90;;;;;;5036779;28;20041;-74
2022/02/26 09:42:31;;;;;;;31.08;4.55;;;4.70;99.90;;;;;;5034273;28;20043;-73
2022/02/26 09:44:57;;;;;;;30.48;5.28;;;4.80;99.90;;;;;;5042652;28;20396;-73
2022/02/26 09:47:23;;;;;;;35.17;4.30;;;5.20;99.90;;;;;;5054013;28;20021;-74
2022/02/26 09:49:49;;;;;;;29.58;4.32;;;4.90;99.90;;;;;;5049936;28;20048;-73
2022/02/26 09:52:17;;;;;;;35.95;5.35;;;4.90;99.90;;;;;;5049711;28;20029;-73
2022/02/26 09:54:49;;;;;;;29.33;4.75;;;4.90;99.90;;;;;;5053426;28;20049;-73
2022/02/26 09:57:15;;;;;;;29.10;4.43;;;5.00;99.90;;;;;;5039105;28;20124;-73
2022/02/26 09:59:44;;;;;;;30.48;4.57;;;5.00;99.90;;;;;;5018395;28;20091;-73
2022/02/26 10:02:10;;;;;;;31.83;4.43;;;5.10;99.90;;;;;;5037080;28;20124;-73
2022/02/26 10:04:37;;;;;;;26.02;4.15;;;5.40;99.90;;;;;;5034569;28;20037;-73
2022/02/26 10:07:17;;;;;;;25.88;3.80;;;5.10;99.90;;;;;;5026134;28;20032;-71
2022/02/26 10:09:47;;;;;;;33.85;5.28;;;5.10;99.90;;;;;;5048657;28;20052;-73
2022/02/26 10:12:20;;;;;;;30.05;4.20;;;5.20;99.90;;;;;;5037191;28;20128;-73
2022/02/26 10:14:50;;;;;;;33.13;4.28;;;5.30;99.90;;;;;;5024324;28;20061;-73
2022/02/26 10:17:33;;;;;;;30.10;4.03;;;5.30;99.90;;;;;;5008338;28;20046;-74
2022/02/26 10:20:16;;;;;;;22.20;3.80;;;5.30;99.90;;;;;;5034678;28;20037;-71
2022/02/26 10:22:50;;;;;;;29.45;4.13;;;5.30;99.90;;;;;;5028312;28;20061;-69
2022/02/26 10:25:19;;;;;;;25.27;3.92;;;5.40;99.90;;;;;;5053461;28;20057;-73
2022/02/26 10:27:53;;;;;;;25.63;4.13;;;5.40;99.90;;;;;;4984300;28;20046;-73
2022/02/26 10:30:23;;;;;;;25.33;3.20;;;5.60;99.90;;;;;;5031438;28;20049;-72
2022/02/26 10:33:08;;;;;;;28.30;3.92;;;5.40;99.90;;;;;;5049405;28;20045;-72
2022/02/26 10:35:44;;;;;;;23.38;4.30;;;5.60;99.90;;;;;;5027559;28;20033;-73
2022/02/26 10:38:20;;;;;;;18.27;3.53;;;5.50;99.90;;;;;;5015109;28;20116;-73
2022/02/26 10:40:50;;;;;;;;;;;5.50;99.90;;;;;;5031842;28;20567;-72
2022/02/26 10:43:38;;;;;;;22.92;3.60;;;5.50;99.90;;;;;;5031345;28;19913;-72
2022/02/26 10:46:30;;;;;;;27.17;4.03;;;5.60;99.90;;;;;;5031247;28;20053;-72
2022/02/26 10:49:02;;;;;;;23.88;3.28;;;5.60;99.90;;;;;;5031619;28;20053;-73
2022/02/26 10:51:33;;;;;;;32.42;4.22;;;5.70;99.90;;;;;;5035654;28;20049;-73
2022/02/26 10:54:03;;;;;;;31.58;3.88;;;5.70;99.90;;;;;;5032171;28;20191;-72
2022/02/26 10:56:37;;;;;;;29.20;4.05;;;5.70;99.90;;;;;;5039189;28;20500;-73
2022/02/26 10:59:04;;;;;;;24.27;3.42;;;5.70;99.90;;;;;;5053300;28;20116;-72
2022/02/26 11:01:30;;;;;;;26.35;3.38;;;5.80;99.90;;;;;;5052950;28;20417;-72
2022/02/26 11:03:57;;;;;;;30.70;3.60;;;5.80;99.90;;;;;;5051769;28;20045;-72
2022/02/26 11:06:24;;;;;;;26.42;3.40;;;5.80;99.90;;;;;;5052721;28;20036;-72
2022/02/26 11:08:54;;;;;;;26.20;3.42;;;5.80;99.90;;;;;;5042834;28;20046;-72
2022/02/26 11:11:22;;;;;;;20.38;3.45;;;5.90;99.90;;;;;;5033279;28;20142;-72
2022/02/26 11:13:53;;;;;;;25.10;2.85;;;5.90;99.90;;;;;;5032853;28;20497;-72
2022/02/26 11:16:20;;;;;;;20.75;4.00;;;5.90;99.90;;;;;;5038800;28;20047;-73
2022/02/26 11:18:48;;;;;;;23.60;3.45;;;5.90;99.90;;;;;;5053075;28;20076;-73
2022/02/26 11:21:16;;;;;;;22.10;3.72;;;5.90;99.90;;;;;;5052850;28;20029;-72
2022/02/26 11:23:43;;;;;;;30.35;3.75;;;6.00;99.90;;;;;;5047954;28;20061;-72
2022/02/26 11:26:10;;;;;;;23.08;3.35;;;6.00;99.90;;;;;;5034193;28;20091;-73
2022/02/26 11:28:40;;;;;;;24.58;3.80;;;6.10;99.90;;;;;;5051763;28;20045;-72
2022/02/26 11:31:11;;;;;;;29.48;3.80;;;6.00;99.90;;;;;;5051759;28;20049;-73
2022/02/26 11:33:38;;;;;;;22.08;3.38;;;6.10;99.90;;;;;;5051604;28;20053;-73
2022/02/26 11:36:05;;;;;;;21.88;3.72;;;6.10;99.90;;;;;;5051604;28;20122;-72
2022/02/26 11:38:36;;;;;;;22.20;3.08;;;6.10;99.90;;;;;;5051335;28;20041;-73
2022/02/26 11:41:22;;;;;;;25.48;3.35;;;6.20;99.90;;;;;;5040003;28;20115;-73
2022/02/26 11:43:52;;;;;;;;;;;6.20;99.90;;;;;;5035492;28;20099;-73
2022/02/26 11:46:29;;;;;;;19.38;3.67;;;6.20;99.90;;;;;;5052521;28;19916;-73
2022/02/26 11:48:56;;;;;;;28.25;3.90;;;6.20;99.90;;;;;;5051609;28;20548;-73
2022/02/26 11:51:33;;;;;;;27.65;3.63;;;6.20;99.90;;;;;;5052472;28;20049;-73
2022/02/26 11:53:59;;;;;;;18.75;3.30;;;6.20;99.90;;;;;;5052474;28;20056;-73
2022/02/26 11:56:39;;;;;;;30.42;4.28;;;6.20;99.90;;;;;;5051086;28;20386;-72
2022/02/26 11:59:05;;;;;;;25.98;3.40;;;6.30;99.90;;;;;;5051027;28;20047;-73
2022/02/26 12:01:31;;;;;;;34.00;3.75;;;6.30;99.90;;;;;;5050956;28;20404;-69
2022/02/26 12:03:57;;;;;;;28.52;3.55;;;6.50;99.90;;;;;;5050951;28;20166;-69
2022/02/26 12:06:22;;;;;;;25.75;3.95;;;6.70;99.90;;;;;;5051081;28;20041;-70
2022/02/26 12:08:59;;;;;;;22.02;3.60;;;6.40;99.90;;;;;;5051309;28;20044;-69
2022/02/26 12:11:33;;;;;;;22.88;3.78;;;6.50;99.90;;;;;;5051093;28;20090;-69
2022/02/26 12:14:19;;;;;;;23.00;3.20;;;6.50;99.90;;;;;;5039070;28;20049;-69
2022/02/26 12:17:10;;;;;;;18.35;3.05;;;6.80;99.90;;;;;;5032295;28;20394;-69
2022/02/26 12:19:47;;;;;;;25.25;3.83;;;6.60;99.90;;;;;;5032369;28;20077;-69
2022/02/26 12:22:14;;;;;;;24.30;3.97;;;6.70;99.90;;;;;;5034085;28;20052;-69
2022/02/26 12:24:48;;;;;;;31.65;3.88;;;6.80;99.90;;;;;;5052244;28;20439;-69
2022/02/26 12:27:14;;;;;;;17.47;3.40;;;6.90;99.90;;;;;;5052093;28;20041;-69
2022/02/26 12:29:40;;;;;;;27.70;3.67;;;6.90;99.90;;;;;;5038272;28;20059;-69
2022/02/26 12:32:13;;;;;;;23.98;3.97;;;7.00;99.90;;;;;;5039123;28;20137;-69
2022/02/26 12:35:02;;;;;;;18.00;3.10;;;7.00;99.90;;;;;;5036053;28;20124;-69
2022/02/26 12:37:36;;;;;;;20.08;3.33;;;7.00;99.90;;;;;;5036025;28;20037;-69
2022/02/26 12:40:09;;;;;;;24.60;3.38;;;7.00;99.90;;;;;;5034786;28;20065;-69
2022/02/26 12:42:43;;;;;;;30.92;4.10;;;7.00;99.90;;;;;;5036064;28;20053;-69
2022/02/26 12:45:12;;;;;;;27.00;3.33;;;6.90;99.90;;;;;;5037840;28;20148;-69
2022/02/26 12:47:38;;;;;;;20.35;3.55;;;6.90;99.90;;;;;;5053092;28;20074;-70
2022/02/26 12:50:07;;;;;;;22.38;4.03;;;6.90;99.90;;;;;;5036795;28;20083;-69